createdAt,value
2019-02-20T00:00:12.254Z,7.67
2019-02-20T00:01:11.094Z,7.97
2019-02-20T00:03:43.239Z,8.30
2019-02-20T00:06:16.979Z,8.50
2019-02-20T00:08:47.633Z,7.67
2019-02-20T00:11:17.753Z,7.57
2019-02-20T00:13:47.834Z,6.07
2019-02-20T00:16:21.768Z,7.33
2019-02-20T00:18:52.192Z,6.93
2019-02-20T00:21:22.519Z,5.97
2019-02-20T00:23:52.986Z,6.80
2019-02-20T00:26:23.266Z,6.63
2019-02-20T00:28:53.079Z,7.27
2019-02-20T00:31:23.015Z,6.00
2019-02-20T00:33:53.077Z,4.50
2019-02-20T00:36:37.966Z,4.50
2019-02-20T00:39:11.361Z,4.20
2019-02-20T00:41:41.674Z,4.40
2019-02-20T00:44:22.713Z,4.73
2019-02-20T00:47:10.218Z,3.67
2019-02-20T00:49:43.424Z,4.63
2019-02-20T00:52:32.289Z,5.10
2019-02-20T00:55:02.303Z,5.13
2019-02-20T00:57:32.059Z,5.80
2019-02-20T01:00:02.644Z,6.17
2019-02-20T01:02:33.159Z,5.53
2019-02-20T01:05:02.974Z,6.40
2019-02-20T01:07:32.991Z,5.77
2019-02-20T01:10:03.577Z,5.80
2019-02-20T01:12:33.517Z,6.07
2019-02-20T01:15:05.002Z,5.93
2019-02-20T01:17:34.793Z,6.43
2019-02-20T01:20:05.964Z,7.10
2019-02-20T01:22:36.061Z,6.53
2019-02-20T01:25:06.078Z,5.80
2019-02-20T01:27:35.897Z,6.27
2019-02-20T01:30:08.963Z,5.90
2019-02-20T01:32:40.849Z,5.57
2019-02-20T01:35:12.712Z,5.77
2019-02-20T01:37:42.555Z,5.73
2019-02-20T01:40:12.348Z,5.83
2019-02-20T01:42:42.227Z,5.93
2019-02-20T01:45:15.612Z,6.00
2019-02-20T01:47:45.422Z,5.47
2019-02-20T01:50:15.420Z,6.13
2019-02-20T01:52:45.688Z,5.47
2019-02-20T01:55:19.379Z,5.40
2019-02-20T01:57:52.257Z,5.03
2019-02-20T02:00:22.477Z,6.73
2019-02-20T02:02:52.377Z,5.83
2019-02-20T02:05:22.766Z,5.57
2019-02-20T02:07:53.030Z,5.23
2019-02-20T02:10:22.851Z,5.67
2019-02-20T02:12:52.759Z,6.00
2019-02-20T02:15:24.606Z,5.70
2019-02-20T02:17:54.447Z,5.00
2019-02-20T02:20:24.407Z,5.33
2019-02-20T02:22:54.523Z,6.03
2019-02-20T02:25:24.378Z,5.30
2019-02-20T02:27:54.740Z,4.93
2019-02-20T02:30:25.040Z,4.97
2019-02-20T02:32:54.829Z,5.17
2019-02-20T02:35:24.648Z,5.10
2019-02-20T02:37:54.370Z,4.70
2019-02-20T02:40:24.505Z,4.80
2019-02-20T02:42:54.450Z,4.77
2019-02-20T02:45:24.634Z,5.43
2019-02-20T02:47:54.439Z,4.40
2019-02-20T02:50:24.333Z,4.53
2019-02-20T02:53:03.109Z,3.67
2019-02-20T02:55:33.059Z,4.93
2019-02-20T02:58:02.882Z,4.43
2019-02-20T03:00:32.697Z,3.90
2019-02-20T03:03:02.783Z,4.53
2019-02-20T03:05:32.647Z,4.23
2019-02-20T03:08:02.795Z,3.70
2019-02-20T03:10:39.377Z,4.77
2019-02-20T03:13:09.226Z,3.90
2019-02-20T03:15:41.957Z,4.43
2019-02-20T03:18:13.050Z,4.80
2019-02-20T03:20:45.152Z,4.30
2019-02-20T03:23:14.942Z,4.30
2019-02-20T03:25:45.265Z,3.73
2019-02-20T03:28:15.033Z,3.73
2019-02-20T03:30:44.841Z,3.90
2019-02-20T03:33:15.303Z,4.00
2019-02-20T03:36:04.462Z,3.77
2019-02-20T03:38:34.986Z,3.30
2019-02-20T03:41:05.370Z,3.60
2019-02-20T03:43:35.221Z,3.77
2019-02-20T03:46:05.113Z,3.20
2019-02-20T03:48:34.871Z,3.77
2019-02-20T03:51:13.433Z,3.60
2019-02-20T03:53:51.431Z,4.10
2019-02-20T03:56:18.141Z,5.10
2019-02-20T03:58:47.943Z,3.90
2019-02-20T04:01:17.704Z,5.23
2019-02-20T04:03:47.671Z,5.93
2019-02-20T04:06:17.925Z,5.27
2019-02-20T04:08:53.815Z,4.73
2019-02-20T04:11:23.607Z,4.80
2019-02-20T04:13:58.365Z,6.17
2019-02-20T04:16:30.149Z,5.60
2019-02-20T04:19:02.346Z,5.33
2019-02-20T04:22:08.041Z,5.43
2019-02-20T04:24:37.957Z,6.00
2019-02-20T04:27:07.762Z,6.23
2019-02-20T04:29:40.442Z,6.77
2019-02-20T04:32:10.702Z,6.73
2019-02-20T04:34:40.501Z,6.23
2019-02-20T04:37:19.353Z,7.20
2019-02-20T04:39:49.187Z,6.97
2019-02-20T04:42:18.986Z,6.70
2019-02-20T04:44:51.108Z,6.73
2019-02-20T04:47:20.492Z,6.53
2019-02-20T04:49:50.335Z,7.10
2019-02-20T04:52:26.033Z,6.33
2019-02-20T04:54:56.374Z,6.20
2019-02-20T04:57:26.316Z,5.77
2019-02-20T05:00:01.514Z,6.87
2019-02-20T05:02:31.716Z,7.83
2019-02-20T05:05:02.020Z,13.27
2019-02-20T05:07:33.391Z,14.57
2019-02-20T05:10:03.736Z,15.37
2019-02-20T05:12:46.674Z,10.77
2019-02-20T05:15:16.602Z,9.93
2019-02-20T05:17:46.641Z,11.07
2019-02-20T05:20:22.327Z,13.83
2019-02-20T05:22:57.371Z,13.17
2019-02-20T05:25:27.319Z,13.13
2019-02-20T05:28:04.862Z,19.37
2019-02-20T05:30:35.660Z,12.20
2019-02-20T05:33:07.886Z,11.60
2019-02-20T05:35:39.712Z,10.87
2019-02-20T05:38:11.037Z,12.57
2019-02-20T05:40:40.916Z,11.90
2019-02-20T05:43:10.811Z,11.73
2019-02-20T05:45:40.621Z,9.40
2019-02-20T05:48:11.043Z,9.07
2019-02-20T05:50:41.360Z,8.00
2019-02-20T05:53:11.296Z,7.83
2019-02-20T05:55:43.467Z,10.10
2019-02-20T05:58:17.172Z,9.70
2019-02-20T06:00:47.086Z,11.10
2019-02-20T06:03:19.709Z,11.63
2019-02-20T06:05:49.912Z,11.33
2019-02-20T06:08:19.972Z,13.13
2019-02-20T06:10:50.189Z,13.67
2019-02-20T06:13:20.262Z,12.87
2019-02-20T06:15:50.139Z,10.63
2019-02-20T06:18:22.793Z,8.40
2019-02-20T06:20:56.759Z,9.57
2019-02-20T06:23:26.530Z,10.07
2019-02-20T06:25:58.057Z,10.43
2019-02-20T06:28:28.376Z,9.30
2019-02-20T06:30:58.225Z,10.20
2019-02-20T06:33:28.177Z,8.80
2019-02-20T06:35:58.001Z,9.57
2019-02-20T06:38:47.518Z,8.27
2019-02-20T06:41:17.352Z,9.07
2019-02-20T06:43:48.121Z,9.10
2019-02-20T06:46:18.077Z,7.90
2019-02-20T06:48:48.385Z,8.37
2019-02-20T06:51:18.257Z,8.10
2019-02-20T06:53:49.523Z,7.70
2019-02-20T06:56:19.366Z,7.90
2019-02-20T06:58:49.606Z,7.33
2019-02-20T07:01:19.427Z,8.57
2019-02-20T07:03:53.242Z,8.40
2019-02-20T07:07:09.715Z,8.00
2019-02-20T07:14:04.311Z,8.03
2019-02-20T07:16:57.397Z,8.20
2019-02-20T07:19:50.252Z,8.40
2019-02-20T07:22:37.118Z,8.90
2019-02-20T07:25:35.107Z,8.73
2019-02-20T07:28:53.407Z,8.47
2019-02-20T07:31:32.408Z,8.20
2019-02-20T07:34:02.299Z,8.47
2019-02-20T07:36:38.141Z,7.77
2019-02-20T07:39:09.376Z,7.40
2019-02-20T07:41:42.091Z,7.40
2019-02-20T07:44:12.030Z,8.47
2019-02-20T07:46:41.894Z,8.27
2019-02-20T07:49:18.676Z,7.50
2019-02-20T07:51:48.527Z,9.07
2019-02-20T07:54:21.267Z,8.33
2019-02-20T07:57:09.970Z,7.70
2019-02-20T07:59:43.036Z,6.90
2019-02-20T08:02:12.973Z,7.37
2019-02-20T08:04:51.556Z,7.57
2019-02-20T08:07:21.807Z,7.70
2019-02-20T08:09:51.707Z,6.37
2019-02-20T08:12:45.053Z,7.77
2019-02-20T08:15:18.095Z,6.90
2019-02-20T08:17:48.360Z,8.47
2019-02-20T08:20:18.516Z,8.53
2019-02-20T08:22:48.731Z,7.47
2019-02-20T08:25:22.968Z,7.60
2019-02-20T08:27:57.274Z,8.67
2019-02-20T08:30:35.501Z,7.40
2019-02-20T08:33:05.333Z,8.33
2019-02-20T08:35:36.761Z,7.73
2019-02-20T08:38:07.521Z,7.40
2019-02-20T08:40:37.427Z,7.80
2019-02-20T08:43:08.229Z,7.67
2019-02-20T08:45:41.351Z,7.20
2019-02-20T08:48:11.195Z,9.07
2019-02-20T08:50:43.307Z,9.00
2019-02-20T08:53:14.827Z,7.63
2019-02-20T08:55:47.109Z,9.17
2019-02-20T08:58:17.432Z,8.30
2019-02-20T09:04:03.904Z,9.53
2019-02-20T09:06:33.995Z,9.17
2019-02-20T09:09:06.227Z,8.07
2019-02-20T09:11:38.484Z,8.17
2019-02-20T09:14:14.186Z,8.23
2019-02-20T09:16:58.193Z,8.53
2019-02-20T09:22:39.533Z,7.83
2019-02-20T09:25:19.554Z,7.53
2019-02-20T09:27:44.020Z,7.83
2019-02-20T09:30:14.847Z,6.93
2019-02-20T09:32:45.272Z,8.37
2019-02-20T09:35:30.971Z,7.87
2019-02-20T09:38:06.431Z,8.37
2019-02-20T09:40:57.534Z,7.57
2019-02-20T09:43:27.356Z,8.53
2019-02-20T09:46:00.510Z,7.63
2019-02-20T09:48:30.424Z,7.80
2019-02-20T09:51:01.001Z,7.83
2019-02-20T09:53:33.330Z,7.10
2019-02-20T09:56:03.177Z,9.33
2019-02-20T09:58:34.189Z,9.43
2019-02-20T10:01:09.678Z,10.77
2019-02-20T10:03:40.714Z,9.50
2019-02-20T10:06:25.006Z,9.97
2019-02-20T10:09:00.040Z,9.33
2019-02-20T10:11:36.857Z,9.83
2019-02-20T10:14:08.421Z,8.67
2019-02-20T10:16:41.075Z,9.67
2019-02-20T10:19:10.875Z,9.00
2019-02-20T10:21:41.466Z,9.47
2019-02-20T10:24:12.892Z,9.07
2019-02-20T10:27:00.476Z,10.63
2019-02-20T10:29:25.074Z,11.17
2019-02-20T10:31:55.181Z,9.43
2019-02-20T10:34:28.654Z,11.10
2019-02-20T10:37:02.801Z,9.67
2019-02-20T10:39:33.049Z,9.77
2019-02-20T10:42:03.251Z,10.50
2019-02-20T10:44:33.357Z,10.50
2019-02-20T10:47:05.776Z,10.87
2019-02-20T10:49:40.036Z,10.70
2019-02-20T10:52:14.930Z,10.23
2019-02-20T10:54:46.625Z,11.67
2019-02-20T10:57:16.615Z,10.20
2019-02-20T10:59:48.042Z,10.63
2019-02-20T11:02:17.956Z,10.23
2019-02-20T11:04:50.953Z,10.90
2019-02-20T11:07:21.026Z,9.40
2019-02-20T11:09:51.610Z,9.90
2019-02-20T11:12:46.695Z,9.80
2019-02-20T11:15:21.855Z,10.70
2019-02-20T11:17:52.030Z,9.53
2019-02-20T11:20:26.244Z,9.77
2019-02-20T11:22:56.480Z,9.87
2019-02-20T11:25:29.131Z,9.37
2019-02-20T11:28:11.415Z,9.80
2019-02-20T11:30:41.860Z,9.90
2019-02-20T11:33:12.272Z,10.53
2019-02-20T11:35:47.757Z,10.83
2019-02-20T11:38:17.905Z,9.90
2019-02-20T11:40:48.386Z,9.80
2019-02-20T11:43:22.136Z,9.93
2019-02-20T11:45:59.351Z,10.00
2019-02-20T11:48:32.542Z,10.67
2019-02-20T11:51:10.362Z,10.60
2019-02-20T11:53:46.304Z,11.63
2019-02-20T11:56:16.625Z,10.60
2019-02-20T11:58:46.562Z,11.17
2019-02-20T12:01:20.138Z,11.37
2019-02-20T12:03:50.777Z,11.60
2019-02-20T12:06:23.420Z,11.07
2019-02-20T12:08:53.361Z,11.77
2019-02-20T12:11:23.325Z,11.27
2019-02-20T12:13:53.289Z,11.90
2019-02-20T12:16:27.257Z,11.23
2019-02-20T12:18:57.555Z,11.57
2019-02-20T12:21:28.462Z,11.83
2019-02-20T12:23:58.690Z,12.63
2019-02-20T12:26:34.829Z,11.20
2019-02-20T12:29:02.717Z,9.70
2019-02-20T12:32:33.370Z,9.33
2019-02-20T12:35:04.044Z,9.23
2019-02-20T12:37:36.399Z,8.93
2019-02-20T12:40:06.663Z,10.00
2019-02-20T12:42:44.303Z,9.63
2019-02-20T12:45:16.252Z,9.17
2019-02-20T12:47:46.391Z,9.03
2019-02-20T12:50:30.667Z,11.87
2019-02-20T12:53:10.995Z,9.27
2019-02-20T12:55:41.205Z,10.23
2019-02-20T12:58:14.422Z,9.17
2019-02-20T13:00:44.390Z,9.50
2019-02-20T13:03:14.246Z,9.10
2019-02-20T13:05:44.366Z,9.13
2019-02-20T13:08:14.339Z,9.07
2019-02-20T13:10:44.424Z,7.97
2019-02-20T13:13:17.315Z,8.67
2019-02-20T13:15:56.590Z,7.87
2019-02-20T13:18:31.227Z,7.60
2019-02-20T13:21:01.351Z,8.43
2019-02-20T13:23:57.980Z,7.90
2019-02-20T13:26:29.191Z,9.17
2019-02-20T13:29:20.421Z,10.83
2019-02-20T13:31:53.482Z,9.60
2019-02-20T13:34:24.694Z,8.80
2019-02-20T13:36:57.309Z,8.33
2019-02-20T13:39:27.201Z,7.23
2019-02-20T13:42:08.886Z,7.17
2019-02-20T13:44:48.949Z,6.43
2019-02-20T13:47:19.515Z,6.33
2019-02-20T13:49:50.450Z,7.30
2019-02-20T13:52:23.756Z,8.23
2019-02-20T13:54:56.229Z,6.70
2019-02-20T13:57:26.604Z,6.40
2019-02-20T13:59:56.958Z,6.33
2019-02-20T14:02:31.008Z,7.30
2019-02-20T14:05:00.965Z,8.07
2019-02-20T14:07:33.305Z,8.57
2019-02-20T14:10:03.721Z,6.93
2019-02-20T14:12:33.875Z,6.90
2019-02-20T14:15:03.913Z,7.57
2019-02-20T14:17:36.149Z,7.13
2019-02-20T14:20:10.640Z,6.60
2019-02-20T14:22:41.737Z,7.30
2019-02-20T14:25:14.776Z,8.43
2019-02-20T14:27:44.744Z,8.33
2019-02-20T14:30:20.825Z,7.13
2019-02-20T14:32:50.920Z,7.70
2019-02-20T14:35:21.431Z,6.40
2019-02-20T14:37:54.291Z,10.60
2019-02-20T14:40:24.476Z,10.30
2019-02-20T14:42:59.408Z,9.20
2019-02-20T14:45:35.376Z,20.80
2019-02-20T14:48:08.454Z,12.40
2019-02-20T14:50:38.949Z,13.87
2019-02-20T14:53:10.364Z,11.47
2019-02-20T14:55:49.089Z,7.33
2019-02-20T14:58:19.045Z,6.40
2019-02-20T15:01:02.297Z,7.93
2019-02-20T15:03:38.209Z,7.07
2019-02-20T15:06:10.740Z,5.73
2019-02-20T15:08:46.615Z,7.13
2019-02-20T15:11:17.488Z,9.10
2019-02-20T15:13:51.187Z,7.57
2019-02-20T15:16:25.285Z,6.60
2019-02-20T15:18:58.448Z,7.23
2019-02-20T15:21:53.105Z,11.23
2019-02-20T15:24:17.942Z,7.63
2019-02-20T15:27:15.047Z,5.70
2019-02-20T15:29:49.090Z,6.27
2019-02-20T15:33:04.581Z,5.47
2019-02-20T15:35:38.098Z,4.83
2019-02-20T15:38:11.101Z,4.63
2019-02-20T15:40:46.752Z,5.13
2019-02-20T15:43:20.762Z,5.00
2019-02-20T15:45:51.394Z,4.73
2019-02-20T15:48:30.461Z,4.80
2019-02-20T15:51:00.845Z,5.13
2019-02-20T15:53:32.529Z,4.90
2019-02-20T15:56:10.770Z,4.70
2019-02-20T15:58:44.156Z,5.23
2019-02-20T16:01:14.525Z,4.80
2019-02-20T16:03:49.925Z,5.27
2019-02-20T16:06:25.329Z,3.60
2019-02-20T16:08:55.353Z,3.90
2019-02-20T16:11:43.018Z,4.63
2019-02-20T16:14:13.576Z,5.00
2019-02-20T16:16:44.550Z,4.53
2019-02-20T16:19:17.528Z,5.00
2019-02-20T16:21:47.450Z,4.47
2019-02-20T16:24:17.772Z,4.10
2019-02-20T16:26:48.810Z,3.73
2019-02-20T16:29:22.202Z,4.63
2019-02-20T16:32:06.720Z,4.40
2019-02-20T16:34:41.010Z,4.13
2019-02-20T16:37:12.902Z,3.73
2019-02-20T16:40:06.661Z,5.47
2019-02-20T16:46:53.075Z,4.03
2019-02-20T17:00:06.347Z,6.50
2019-02-20T17:02:42.824Z,4.43
2019-02-20T17:08:10.617Z,4.87
2019-02-20T17:10:44.351Z,4.10
2019-02-20T17:13:19.278Z,4.43
2019-02-20T17:15:49.473Z,4.57
2019-02-20T17:18:20.690Z,4.63
2019-02-20T17:20:53.004Z,4.93
2019-02-20T17:23:30.745Z,8.27
2019-02-20T17:26:05.199Z,8.23
2019-02-20T17:28:38.254Z,7.10
2019-02-20T17:31:09.382Z,7.23
2019-02-20T17:33:43.045Z,6.67
2019-02-20T17:36:31.206Z,7.97
2019-02-20T17:39:07.203Z,7.70
2019-02-20T17:41:46.070Z,6.67
2019-02-20T17:44:17.618Z,6.23
2019-02-20T17:46:49.269Z,6.60
2019-02-20T17:49:38.811Z,6.73
2019-02-20T17:52:13.322Z,5.33
2019-02-20T17:54:46.195Z,5.00
2019-02-20T17:57:38.606Z,5.73
2019-02-20T18:00:17.175Z,5.10
2019-02-20T18:02:53.605Z,5.73
2019-02-20T18:05:24.103Z,5.07
2019-02-20T18:07:55.533Z,11.70
2019-02-20T18:10:49.193Z,17.93
2019-02-20T18:13:22.560Z,17.80
2019-02-20T18:16:06.222Z,15.77
2019-02-20T18:18:36.720Z,15.73
2019-02-20T18:21:12.675Z,15.43
2019-02-20T18:23:54.541Z,16.03
2019-02-20T18:26:41.694Z,15.23
2019-02-20T18:29:34.583Z,11.70
2019-02-20T18:32:14.368Z,11.67
2019-02-20T18:35:04.664Z,9.30
2019-02-20T18:37:52.233Z,8.70
2019-02-20T18:44:20.433Z,8.30
2019-02-20T18:47:00.753Z,7.10
2019-02-20T18:49:45.310Z,7.63
2019-02-20T18:52:49.750Z,8.50
2019-02-20T18:58:34.253Z,8.83
2019-02-20T19:01:06.727Z,11.23
2019-02-20T19:03:45.717Z,10.73
2019-02-20T19:06:15.981Z,9.07
2019-02-20T19:09:04.893Z,9.07
2019-02-20T19:12:18.299Z,8.97
2019-02-20T19:15:25.843Z,8.47
2019-02-20T19:18:38.314Z,8.90
2019-02-20T19:22:06.515Z,10.10
2019-02-20T19:25:04.974Z,9.93
2019-02-20T19:27:57.276Z,8.37
2019-02-20T19:31:05.560Z,8.20
2019-02-20T19:33:48.750Z,7.87
2019-02-20T19:37:14.817Z,8.43
2019-02-20T19:40:36.390Z,7.67
2019-02-20T19:43:58.304Z,7.37
2019-02-20T19:46:57.559Z,8.67
2019-02-20T19:50:19.198Z,8.37
2019-02-20T19:53:10.305Z,8.63
2019-02-20T19:59:47.257Z,9.30
2019-02-20T20:03:14.740Z,8.93
2019-02-20T20:06:44.777Z,9.43
2019-02-20T20:10:05.405Z,11.03
2019-02-20T20:13:47.804Z,18.27
2019-02-20T20:20:07.749Z,12.10
2019-02-20T20:23:06.354Z,11.27
2019-02-20T20:26:42.129Z,11.97
2019-02-20T20:29:53.699Z,12.27
2019-02-20T20:33:38.389Z,10.93
2019-02-20T20:36:50.974Z,10.83
2019-02-20T20:39:58.637Z,11.47
2019-02-20T20:43:20.442Z,12.70
2019-02-20T20:46:59.217Z,14.07
2019-02-20T20:50:08.523Z,15.03
2019-02-20T20:53:15.371Z,14.37
2019-02-20T20:56:28.941Z,15.93
2019-02-20T20:59:35.278Z,15.60
2019-02-20T21:02:40.001Z,14.27
2019-02-20T21:05:53.171Z,12.23
2019-02-20T21:09:05.307Z,12.13
2019-02-20T21:12:22.342Z,11.77
2019-02-20T21:15:28.286Z,11.03
2019-02-20T21:19:05.357Z,10.27
2019-02-20T21:21:43.730Z,10.83
2019-02-20T21:25:04.452Z,9.77
2019-02-20T21:28:12.574Z,11.07
2019-02-20T21:31:40.089Z,10.77
2019-02-20T21:35:02.815Z,10.83
2019-02-20T21:38:20.629Z,11.97
2019-02-20T21:41:21.335Z,10.57
2019-02-20T21:44:30.950Z,10.67
2019-02-20T21:47:58.204Z,10.97
2019-02-20T21:51:12.549Z,11.50
2019-02-20T21:54:21.575Z,11.33
2019-02-20T21:57:23.642Z,9.43
2019-02-20T22:00:37.423Z,10.57
2019-02-20T22:03:46.243Z,12.20
2019-02-20T22:07:09.415Z,12.07
2019-02-20T22:10:30.864Z,11.27
2019-02-20T22:13:47.075Z,11.63
2019-02-20T22:16:51.673Z,10.60
2019-02-20T22:19:55.678Z,10.60
2019-02-20T22:23:05.504Z,10.70
2019-02-20T22:26:03.481Z,9.57
2019-02-20T22:29:17.359Z,10.60
2019-02-20T22:32:20.427Z,8.50
2019-02-20T22:35:34.194Z,9.57
2019-02-20T22:38:44.052Z,9.23
2019-02-20T22:45:36.866Z,9.73
2019-02-20T22:48:35.092Z,8.63
2019-02-20T22:51:54.801Z,9.30
2019-02-20T22:55:14.647Z,9.33
2019-02-20T22:58:02.584Z,9.70
2019-02-20T23:01:10.371Z,8.60
2019-02-20T23:04:10.378Z,11.43
2019-02-20T23:07:16.199Z,11.27
2019-02-20T23:10:18.157Z,9.20
2019-02-20T23:13:21.277Z,10.47
2019-02-20T23:15:51.614Z,8.93
2019-02-20T23:18:39.772Z,9.73
2019-02-20T23:21:10.693Z,8.67
2019-02-20T23:23:44.940Z,10.23
2019-02-20T23:26:16.045Z,9.43
2019-02-20T23:28:48.249Z,10.13
2019-02-20T23:31:22.445Z,9.10
2019-02-20T23:33:54.215Z,9.50
2019-02-20T23:42:37.710Z,8.93
2019-02-20T23:45:08.559Z,9.60
2019-02-20T23:47:38.834Z,9.20
2019-02-20T23:50:09.778Z,9.57
2019-02-20T23:52:40.514Z,9.90
2019-02-20T23:57:47.968Z,8.60
